Time;durP1;ratioP1;P1;durP2;ratioP2;P2;SDS_P1;SDS_P2;PMS_P1;PMS_P2;Temp;Humidity;BMP_temperature;BMP_pressure;BME280_temperature;BME280_humidity;BME280_pressure;Samples;Min_cycle;Max_cycle;Signal;HPM_P1;HPM_P2
2022/11/09 00:00:05;;;;;;;8.07;3.38;;;;;;;12.84;100.00;163921.69;5070261;28;20617;-62
2022/11/09 00:02:30;;;;;;;7.80;4.03;;;;;;;12.78;100.00;163906.81;5068811;28;20037;-62
2022/11/09 00:04:56;;;;;;;4.93;2.42;;;;;;;12.75;100.00;163898.69;5070143;28;20037;-62
2022/11/09 00:07:21;;;;;;;5.35;2.50;;;;;;;12.72;100.00;163889.22;5068528;28;20048;-62
2022/11/09 00:09:46;;;;;;;18.15;4.63;;;;;;;12.68;100.00;163881.13;5069321;28;20486;-62
2022/11/09 00:12:12;;;;;;;5.57;3.38;;;;;;;12.69;100.00;163883.84;5069074;28;20032;-62
2022/11/09 00:14:38;;;;;;;4.70;2.38;;;;;;;12.75;100.00;163898.69;5069990;28;20025;-62
2022/11/09 00:17:03;;;;;;;13.98;4.20;;;;;;;12.80;100.00;163910.84;5068444;28;20052;-62
2022/11/09 00:19:28;;;;;;;5.50;3.30;;;;;;;12.84;100.00;163921.69;5070093;28;20021;-62
2022/11/09 00:21:54;;;;;;;5.95;3.47;;;;;;;12.90;100.00;163936.53;5068825;28;20043;-61
2022/11/09 00:24:19;;;;;;;3.35;2.38;;;;;;;12.97;100.00;163956.81;5073313;28;20493;-62
2022/11/09 00:26:44;;;;;;;5.40;2.75;;;;;;;12.97;100.00;163956.81;5072195;28;20414;-62
2022/11/09 00:29:10;;;;;;;3.92;3.10;;;;;;;13.00;100.00;163964.91;5073859;28;20024;-62
2022/11/09 00:31:35;;;;;;;4.32;3.70;;;;;;;12.96;100.00;163952.72;5071556;28;20040;-62
2022/11/09 00:34:00;;;;;;;5.75;3.03;;;;;;;13.01;100.00;163967.63;5073910;28;20333;-62
2022/11/09 00:36:27;;;;;;;7.68;2.70;;;;;;;13.05;100.00;163975.75;5072213;28;20063;-62
2022/11/09 00:38:55;;;;;;;11.02;3.67;;;;;;;13.08;100.00;163985.22;5072853;28;20021;-62
2022/11/09 00:41:21;;;;;;;5.00;2.80;;;;;;;13.07;100.00;163982.50;5071961;28;20031;-62
2022/11/09 00:43:46;;;;;;;6.50;4.15;;;;;;;12.99;100.00;163962.19;5073306;28;20108;-63
2022/11/09 00:46:12;;;;;;;8.32;3.85;;;;;;;12.94;100.00;163948.69;5072033;28;20032;-62
2022/11/09 00:48:37;;;;;;;8.73;3.00;;;;;;;12.89;100.00;163933.81;5072648;28;20433;-62
2022/11/09 00:51:03;;;;;;;7.00;3.55;;;;;;;12.83;100.00;163920.31;5073358;28;20033;-62
2022/11/09 00:53:30;;;;;;;4.53;3.00;;;;;;;12.78;100.00;163906.81;5071844;28;20402;-62
2022/11/09 00:56:01;;;;;;;9.27;3.05;;;;;;;12.70;100.00;163886.50;5073527;28;20081;-63
2022/11/09 00:58:28;;;;;;;5.18;4.30;;;;;;;12.62;100.00;163864.88;5071851;28;20193;-63
2022/11/09 01:00:55;;;;;;;7.28;4.20;;;;;;;12.56;100.00;163848.66;5072425;28;20108;-63
2022/11/09 01:03:21;;;;;;;5.60;2.65;;;;;;;12.52;100.00;163839.22;5071626;28;20040;-63
2022/11/09 01:05:47;;;;;;;4.50;3.50;;;;;;;12.53;100.00;163840.59;5073179;28;20050;-63
2022/11/09 01:08:12;;;;;;;6.78;4.18;;;;;;;12.52;100.00;163837.88;5071146;28;20406;-62
2022/11/09 01:10:43;;;;;;;9.90;4.18;;;;;;;12.60;100.00;163859.50;5072646;28;20033;-62
2022/11/09 01:13:10;;;;;;;7.38;4.65;;;;;;;12.62;100.00;163864.88;5071209;28;20044;-62
2022/11/09 01:16:06;;;;;;;5.05;3.15;;;;;;;12.64;100.00;163870.28;5072366;28;20044;-62
2022/11/09 01:18:31;;;;;;;10.40;3.97;;;;;;;12.64;100.00;163870.28;5070868;28;20044;-62
2022/11/09 01:20:56;;;;;;;6.65;2.75;;;;;;;12.70;100.00;163886.50;5072633;28;20454;-62
2022/11/09 01:23:22;;;;;;;6.30;3.08;;;;;;;12.78;100.00;163905.44;5071005;28;20388;-62
2022/11/09 01:25:47;;;;;;;5.32;3.47;;;;;;;12.83;100.00;163918.97;5072736;28;20076;-62
2022/11/09 01:28:12;;;;;;;6.00;3.30;;;;;;;12.88;100.00;163932.47;5071111;28;20040;-62
2022/11/09 01:30:41;;;;;;;5.20;3.35;;;;;;;12.93;100.00;163944.66;5071985;28;20427;-62
2022/11/09 01:33:08;;;;;;;9.02;3.53;;;;;;;12.97;100.00;163955.44;5071006;28;20097;-62
2022/11/09 01:35:35;;;;;;;9.30;3.37;;;;;;;13.01;100.00;163967.63;5072231;28;20422;-62
2022/11/09 01:38:02;;;;;;;6.25;3.28;;;;;;;12.96;100.00;163954.13;5070392;28;21053;-62
2022/11/09 01:40:28;;;;;;;5.78;3.70;;;;;;;12.96;100.00;163954.13;5072495;28;20034;-62
2022/11/09 01:42:53;;;;;;;5.50;2.20;;;;;;;12.97;100.00;163956.81;5070958;28;20445;-62
2022/11/09 01:45:36;;;;;;;5.07;3.15;;;;;;;12.98;100.00;163958.16;5071906;28;20044;-62
2022/11/09 01:48:10;;;;;;;5.07;3.35;;;;;;;12.96;100.00;163954.13;5070695;28;20044;-63
2022/11/09 01:50:57;;;;;;;7.75;3.20;;;;;;;12.93;100.00;163945.97;5071828;28;20075;-63
2022/11/09 01:53:26;;;;;;;4.28;3.50;;;;;;;12.87;100.00;163929.78;5070468;28;20045;-62
2022/11/09 01:55:55;;;;;;;4.03;3.13;;;;;;;12.77;100.00;163902.75;5071845;28;20483;-62
2022/11/09 01:58:26;;;;;;;3.92;3.20;;;;;;;12.77;100.00;163902.75;5070706;28;20046;-63
2022/11/09 02:00:54;;;;;;;7.35;3.08;;;;;;;12.73;100.00;163891.94;5071237;28;20031;-62
2022/11/09 02:03:26;;;;;;;6.50;3.33;;;;;;;12.70;100.00;163886.50;5070645;28;20041;-62
2022/11/09 02:05:52;;;;;;;2.72;2.50;;;;;;;12.67;100.00;163878.44;5071506;28;20386;-62
2022/11/09 02:08:19;;;;;;;4.53;3.67;;;;;;;12.67;100.00;163878.44;5070239;28;20040;-62
2022/11/09 02:11:03;;;;;;;2.85;2.45;;;;;;;12.65;100.00;163873.00;5071091;28;20036;-62
2022/11/09 02:13:30;;;;;;;3.88;3.03;;;;;;;12.67;100.00;163878.44;5070475;28;20423;-62
2022/11/09 02:15:55;;;;;;;8.25;2.72;;;;;;;12.66;100.00;163875.72;5071223;28;20111;-63
2022/11/09 02:18:21;;;;;;;3.22;2.65;;;;;;;12.64;100.00;163868.97;5070145;28;20043;-63
2022/11/09 02:20:55;;;;;;;9.35;4.10;;;;;;;12.56;100.00;163848.66;5071366;28;20028;-63
2022/11/09 02:23:21;;;;;;;5.30;2.53;;;;;;;12.51;100.00;163835.16;5069845;28;20048;-62
2022/11/09 02:25:54;;;;;;;10.63;4.78;;;;;;;12.45;100.00;163818.97;5071400;28;20087;-64
2022/11/09 02:28:20;;;;;;;14.60;3.78;;;;;;;12.43;100.00;163813.53;5070147;28;20474;-63
2022/11/09 02:30:49;;;;;;;8.10;2.88;;;;;;;12.40;100.00;163805.47;5070600;28;20029;-64
2022/11/09 02:33:15;;;;;;;6.07;3.25;;;;;;;12.32;100.00;163786.50;5069854;28;20041;-64
2022/11/09 02:35:40;;;;;;;4.07;2.33;;;;;;;12.29;100.00;163778.41;5071059;28;20085;-63
2022/11/09 02:38:10;;;;;;;14.18;3.40;;;;;;;12.27;100.00;163773.00;5069554;28;20045;-63
2022/11/09 02:40:37;;;;;;;5.05;3.00;;;;;;;12.25;100.00;163767.59;5071125;28;20121;-63
2022/11/09 02:43:05;;;;;;;6.30;3.78;;;;;;;12.29;100.00;163777.03;5069751;28;20076;-62
2022/11/09 02:45:30;;;;;;;5.32;2.75;;;;;;;12.33;100.00;163787.88;5069974;28;20020;-63
2022/11/09 02:47:56;;;;;;;6.13;3.65;;;;;;;12.33;100.00;163789.22;5069329;28;20430;-63
2022/11/09 02:50:21;;;;;;;3.75;3.33;;;;;;;12.28;100.00;163775.72;5070965;28;20074;-63
2022/11/09 02:52:47;;;;;;;8.00;3.38;;;;;;;12.29;100.00;163777.03;5069263;28;20090;-63
2022/11/09 02:55:12;;;;;;;7.45;2.47;;;;;;;12.37;100.00;163798.66;5070773;28;20032;-63
2022/11/09 02:57:37;;;;;;;5.22;3.33;;;;;;;12.41;100.00;163809.50;5069223;28;20410;-63
2022/11/09 03:00:04;;;;;;;11.48;5.40;;;;;;;12.43;100.00;163813.53;5070675;28;20020;-62
2022/11/09 03:02:30;;;;;;;5.72;2.35;;;;;;;12.48;100.00;163827.03;5069467;28;20039;-62
2022/11/09 03:04:55;;;;;;;4.97;3.30;;;;;;;12.53;100.00;163840.59;5070916;28;20040;-62
2022/11/09 03:07:21;;;;;;;4.93;3.03;;;;;;;12.55;100.00;163845.97;5068740;28;20045;-62
2022/11/09 03:09:46;;;;;;;6.15;3.20;;;;;;;12.57;100.00;163850.03;5069108;28;20655;-62
2022/11/09 03:12:30;;;;;;;6.93;3.70;;;;;;;12.56;100.00;163848.66;5069416;28;20041;-62
2022/11/09 03:15:00;;;;;;;8.88;3.35;;;;;;;12.52;100.00;163837.88;5070679;28;20032;-62
2022/11/09 03:17:26;;;;;;;6.53;3.47;;;;;;;12.55;100.00;163845.97;5069508;28;20071;-62
2022/11/09 03:19:52;;;;;;;5.25;3.80;;;;;;;12.60;100.00;163859.50;5070514;28;20047;-62
2022/11/09 03:22:18;;;;;;;10.95;3.58;;;;;;;12.56;100.00;163848.66;5068731;28;20075;-62
2022/11/09 03:24:43;;;;;;;11.50;4.53;;;;;;;12.63;100.00;163866.25;5070579;28;20020;-62
2022/11/09 03:27:09;;;;;;;7.32;2.65;;;;;;;12.67;100.00;163878.44;5069151;28;20047;-62
2022/11/09 03:29:34;;;;;;;4.53;2.25;;;;;;;12.69;100.00;163883.84;5070481;28;20029;-62
2022/11/09 03:32:00;;;;;;;6.25;3.13;;;;;;;12.69;100.00;163882.47;5068929;28;20037;-62
2022/11/09 03:34:25;;;;;;;6.85;3.22;;;;;;;12.68;100.00;163879.75;5070649;28;20020;-62
2022/11/09 03:36:50;;;;;;;4.68;2.90;;;;;;;12.66;100.00;163875.72;5068715;28;20490;-62
2022/11/09 03:39:16;;;;;;;6.07;2.83;;;;;;;12.66;100.00;163875.72;5070399;28;20091;-63
2022/11/09 03:41:41;;;;;;;5.13;3.95;;;;;;;12.64;100.00;163870.28;5069048;28;20040;-63
2022/11/09 03:44:06;;;;;;;5.97;3.50;;;;;;;12.61;100.00;163862.22;5070314;28;20028;-63
2022/11/09 03:46:32;;;;;;;7.20;3.42;;;;;;;12.58;100.00;163852.75;5068742;28;20072;-63
2022/11/09 03:48:57;;;;;;;6.07;2.55;;;;;;;12.53;100.00;163840.59;5070014;28;20029;-64
2022/11/09 03:51:22;;;;;;;4.18;3.25;;;;;;;12.51;100.00;163835.16;5068733;28;20035;-64
2022/11/09 03:53:48;;;;;;;4.78;2.60;;;;;;;12.51;100.00;163835.16;5069843;28;20028;-64
2022/11/09 03:56:14;;;;;;;10.73;4.38;;;;;;;12.52;100.00;163839.22;5068898;28;20510;-64
2022/11/09 03:58:39;;;;;;;4.63;3.08;;;;;;;12.53;100.00;163840.59;5072836;28;20429;-64
2022/11/09 04:01:04;;;;;;;12.55;6.10;;;;;;;12.52;100.00;163839.22;5074412;28;20518;-65
2022/11/09 04:03:29;;;;;;;7.55;2.47;;;;;;;12.57;100.00;163851.38;5073018;28;20400;-65
2022/11/09 04:05:57;;;;;;;6.38;3.25;;;;;;;12.60;100.00;163859.50;5073703;28;20039;-65
2022/11/09 04:08:22;;;;;;;17.85;4.32;;;;;;;12.58;100.00;163854.09;5072497;28;20565;-65
2022/11/09 04:10:48;;;;;;;4.05;3.00;;;;;;;12.58;100.00;163854.09;5074053;28;20028;-65
2022/11/09 04:13:13;;;;;;;4.50;1.98;;;;;;;12.61;100.00;163862.22;5072330;28;20518;-65
2022/11/09 04:15:38;;;;;;;2.95;2.60;;;;;;;12.64;100.00;163870.28;5074003;28;20748;-65
2022/11/09 04:18:04;;;;;;;3.22;2.60;;;;;;;12.64;100.00;163868.97;5072044;28;20040;-65
2022/11/09 04:20:31;;;;;;;5.72;3.40;;;;;;;12.64;100.00;163870.28;5073743;28;20020;-65
2022/11/09 04:22:59;;;;;;;11.23;3.70;;;;;;;12.67;100.00;163878.44;5072238;28;20048;-66
2022/11/09 04:25:25;;;;;;;4.45;2.90;;;;;;;12.68;100.00;163879.75;5073940;28;20390;-64
2022/11/09 04:27:57;;;;;;;6.70;3.50;;;;;;;12.69;100.00;163883.84;5071560;28;20047;-64
2022/11/09 04:30:23;;;;;;;4.60;2.92;;;;;;;12.68;100.00;163881.13;5073933;28;20035;-63
2022/11/09 04:32:49;;;;;;;13.52;3.13;;;;;;;12.69;100.00;163883.84;5071930;28;20123;-63
2022/11/09 04:35:15;;;;;;;4.53;2.33;;;;;;;12.74;100.00;163894.63;5073843;28;20070;-62
2022/11/09 04:37:40;;;;;;;6.72;2.85;;;;;;;12.77;100.00;163904.09;5071766;28;20044;-62
2022/11/09 04:40:06;;;;;;;9.25;2.97;;;;;;;12.76;100.00;163900.06;5073325;28;20028;-62
2022/11/09 04:42:31;;;;;;;14.30;4.38;;;;;;;12.82;100.00;163917.59;5071903;28;20047;-62
2022/11/09 04:44:56;;;;;;;12.48;4.47;;;;;;;12.84;100.00;163921.69;5073155;28;20024;-62
2022/11/09 04:47:22;;;;;;;5.65;3.63;;;;;;;12.76;100.00;163900.06;5071913;28;20044;-62
2022/11/09 04:49:47;;;;;;;10.68;4.38;;;;;;;12.72;100.00;163889.22;5072619;28;20078;-62
2022/11/09 04:52:12;;;;;;;2.80;2.20;;;;;;;12.64;100.00;163870.28;5071604;28;20044;-62
2022/11/09 04:54:37;;;;;;;9.60;5.57;;;;;;;12.61;100.00;163862.22;5073209;28;20566;-62
2022/11/09 04:57:03;;;;;;;5.88;2.58;;;;;;;12.59;100.00;163856.78;5071445;28;20329;-62
2022/11/09 04:59:28;;;;;;;3.10;1.98;;;;;;;12.55;100.00;163845.97;5073390;28;20017;-62
2022/11/09 05:01:54;;;;;;;7.00;3.75;;;;;;;12.57;100.00;163850.03;5071845;28;20146;-62
2022/11/09 05:04:19;;;;;;;15.40;4.93;;;;;;;12.58;100.00;163854.09;5072597;28;20074;-62
2022/11/09 05:06:44;;;;;;;7.22;3.08;;;;;;;12.56;100.00;163848.66;5071454;28;20041;-62
2022/11/09 05:09:10;;;;;;;15.25;4.68;;;;;;;12.43;100.00;163813.53;5071214;28;20024;-62
2022/11/09 05:11:35;;;;;;;9.15;3.33;;;;;;;12.61;100.00;163860.84;5071692;28;20036;-66
2022/11/09 05:14:01;;;;;;;7.68;2.40;;;;;;;12.59;100.00;163856.78;5071043;28;20028;-62
2022/11/09 05:16:28;;;;;;;8.60;3.95;;;;;;;12.58;100.00;163852.75;5070465;28;20053;-64
2022/11/09 05:18:53;;;;;;;4.85;2.45;;;;;;;12.58;100.00;163852.75;5072703;28;20483;-64
2022/11/09 05:21:20;;;;;;;10.35;4.60;;;;;;;12.47;100.00;163824.38;5071263;28;20107;-64
2022/11/09 05:24:01;;;;;;;9.57;3.58;;;;;;;12.47;100.00;163824.38;5072833;28;20104;-64
2022/11/09 05:26:29;;;;;;;8.07;2.80;;;;;;;12.41;100.00;163808.13;5070855;28;20522;-63
2022/11/09 05:28:54;;;;;;;8.57;4.32;;;;;;;12.29;100.00;163778.41;5066844;28;20033;-64
2022/11/09 05:31:20;;;;;;;8.68;4.10;;;;;;;12.25;100.00;163767.59;5071349;28;20051;-64
2022/11/09 05:33:49;;;;;;;12.07;3.60;;;;;;;12.13;100.00;163735.16;5071695;28;20034;-63
2022/11/09 05:36:14;;;;;;;11.02;2.72;;;;;;;12.11;100.00;163731.13;5070557;28;20028;-64
2022/11/09 05:38:39;;;;;;;10.82;4.57;;;;;;;12.03;100.00;163709.50;5072487;28;20031;-64
2022/11/09 05:41:05;;;;;;;12.95;3.35;;;;;;;11.98;100.00;163697.34;5071728;28;20588;-61
2022/11/09 05:43:30;;;;;;;10.23;3.10;;;;;;;11.90;100.00;163675.69;5071979;28;20017;-63
2022/11/09 05:45:55;;;;;;;5.88;2.90;;;;;;;11.88;100.00;163670.25;5072273;28;20028;-63
2022/11/09 05:48:21;;;;;;;8.40;3.40;;;;;;;11.90;100.00;163677.06;5070867;28;20097;-63
2022/11/09 05:50:46;;;;;;;7.82;4.15;;;;;;;11.81;100.00;163651.34;5071754;28;20088;-63
2022/11/09 05:53:12;;;;;;;9.80;2.63;;;;;;;11.81;100.00;163651.34;5071043;28;20538;-63
2022/11/09 05:55:37;;;;;;;8.23;3.10;;;;;;;11.78;100.00;163644.59;5072243;28;20471;-63
2022/11/09 05:58:03;;;;;;;10.95;3.10;;;;;;;11.73;100.00;163632.44;5070562;28;20380;-63
2022/11/09 06:00:29;;;;;;;11.88;3.40;;;;;;;11.68;100.00;163618.94;5072043;28;20024;-63
2022/11/09 06:03:01;;;;;;;7.93;3.55;;;;;;;11.70;100.00;163624.38;5070633;28;20040;-63
2022/11/09 06:05:26;;;;;;;10.95;3.53;;;;;;;11.65;100.00;163609.50;5072195;28;20024;-63
2022/11/09 06:07:52;;;;;;;5.95;2.22;;;;;;;11.64;100.00;163608.16;5070148;28;20526;-62
2022/11/09 06:10:17;;;;;;;12.07;4.38;;;;;;;11.58;100.00;163593.28;5071967;28;20021;-62
2022/11/09 06:12:42;;;;;;;6.93;2.83;;;;;;;11.39;100.00;163543.31;5070053;28;20082;-62
2022/11/09 06:15:08;;;;;;;8.20;4.78;;;;;;;11.47;100.00;163562.22;5072087;28;20544;-62
2022/11/09 06:17:33;;;;;;;4.38;3.35;;;;;;;11.42;100.00;163551.44;5070489;28;20455;-60
2022/11/09 06:19:59;;;;;;;13.35;4.57;;;;;;;11.40;100.00;163546.03;5071162;28;20044;-59
2022/11/09 06:22:24;;;;;;;8.82;3.70;;;;;;;11.45;100.00;163558.19;5070378;28;20048;-60
2022/11/09 06:24:49;;;;;;;8.93;3.10;;;;;;;11.45;100.00;163556.81;5071627;28;20047;-60
2022/11/09 06:27:15;;;;;;;9.63;3.78;;;;;;;11.40;100.00;163546.03;5069991;28;20040;-60
2022/11/09 06:29:40;;;;;;;10.02;3.20;;;;;;;11.33;100.00;163527.13;5071278;28;20498;-60
2022/11/09 06:32:05;;;;;;;8.43;4.00;;;;;;;11.35;100.00;163532.53;5070043;28;20406;-60
2022/11/09 06:34:31;;;;;;;10.95;2.92;;;;;;;11.35;100.00;163532.53;5071206;28;20078;-60
2022/11/09 06:36:56;;;;;;;8.55;4.10;;;;;;;11.32;100.00;163523.09;5069975;28;20036;-60
2022/11/09 06:39:22;;;;;;;5.13;2.78;;;;;;;11.33;100.00;163527.13;5071424;28;20050;-60
2022/11/09 06:41:47;;;;;;;21.85;5.93;;;;;;;11.31;100.00;163521.72;5069491;28;20032;-60
2022/11/09 06:44:13;;;;;;;7.03;3.03;;;;;;;11.30;100.00;163519.00;5071426;28;20356;-60
2022/11/09 06:46:38;;;;;;;13.77;3.78;;;;;;;11.22;100.00;163498.75;5069843;28;20521;-60
2022/11/09 06:49:04;;;;;;;12.40;3.88;;;;;;;11.25;100.00;163505.50;5069447;28;20078;-60
2022/11/09 06:51:29;;;;;;;8.88;3.45;;;;;;;11.29;100.00;163514.97;5070087;28;20442;-60
2022/11/09 06:53:54;;;;;;;12.73;4.05;;;;;;;11.31;100.00;163521.72;5071352;28;20097;-60
2022/11/09 06:56:20;;;;;;;14.27;4.18;;;;;;;11.34;100.00;163528.44;5069425;28;20463;-60
2022/11/09 06:58:45;;;;;;;11.05;4.03;;;;;;;11.37;100.00;163537.91;5071048;28;20025;-60
2022/11/09 07:01:14;;;;;;;9.63;4.28;;;;;;;11.37;100.00;163536.56;5069724;28;20032;-60
2022/11/09 07:03:39;;;;;;;;;;;;;;;11.36;100.00;163535.19;5071123;28;20119;-60
2022/11/09 07:06:07;;;;;;;10.10;3.35;;;;;;;11.33;100.00;163527.13;5071203;28;19985;-60
2022/11/09 07:08:33;;;;;;;14.90;5.45;;;;;;;11.30;100.00;163519.00;5069573;28;20575;-60
2022/11/09 07:11:14;;;;;;;12.07;6.65;;;;;;;11.28;100.00;163513.63;5069890;28;20067;-60
2022/11/09 07:13:40;;;;;;;8.52;3.20;;;;;;;11.30;100.00;163519.00;5069090;28;20563;-60
2022/11/09 07:16:06;;;;;;;10.32;3.58;;;;;;;11.34;100.00;163528.44;5068999;28;20032;-59
2022/11/09 07:18:32;;;;;;;8.93;4.03;;;;;;;11.40;100.00;163544.66;5069992;28;20364;-60
2022/11/09 07:20:57;;;;;;;12.02;4.03;;;;;;;11.48;100.00;163564.94;5070240;28;20012;-60
2022/11/09 07:23:22;;;;;;;12.77;3.60;;;;;;;11.54;100.00;163581.13;5065625;28;20495;-60
2022/11/09 07:25:48;;;;;;;7.47;3.15;;;;;;;11.55;100.00;163585.16;5047280;28;20084;-60
2022/11/09 07:28:13;;;;;;;17.67;4.90;;;;;;;11.62;100.00;163601.38;5049365;28;20438;-60
2022/11/09 07:30:39;;;;;;;12.68;4.05;;;;;;;11.60;100.00;163597.31;5066084;28;20071;-60
2022/11/09 07:33:17;;;;;;;11.68;4.13;;;;;;;11.61;100.00;163600.03;5068379;28;20066;-60
2022/11/09 07:35:42;;;;;;;12.17;4.97;;;;;;;11.52;100.00;163575.72;5070902;28;20368;-60
2022/11/09 07:38:07;;;;;;;10.65;2.83;;;;;;;11.53;100.00;163578.41;5069266;28;20040;-60
2022/11/09 07:40:33;;;;;;;10.77;2.85;;;;;;;11.50;100.00;163570.34;5070336;28;20021;-60
2022/11/09 07:42:59;;;;;;;13.95;5.00;;;;;;;11.50;100.00;163570.34;5052083;28;20682;-60
2022/11/09 07:45:25;;;;;;;20.42;6.03;;;;;;;11.54;100.00;163581.13;5050426;28;20035;-60
2022/11/09 07:47:59;;;;;;;3.95;2.50;;;;;;;11.61;100.00;163600.03;5048520;28;20056;-60
2022/11/09 07:50:25;;;;;;;16.40;4.72;;;;;;;11.69;100.00;163620.31;5050626;28;20032;-60
2022/11/09 07:52:50;;;;;;;9.38;3.03;;;;;;;11.72;100.00;163629.78;5048965;28;20048;-60
2022/11/09 07:55:16;;;;;;;18.65;4.68;;;;;;;11.80;100.00;163648.69;5050043;28;20021;-60
2022/11/09 07:57:43;;;;;;;10.70;3.88;;;;;;;11.87;100.00;163668.94;5048769;28;20037;-60
2022/11/09 08:00:10;;;;;;;22.23;3.85;;;;;;;11.98;100.00;163697.34;5050416;28;20017;-60
2022/11/09 08:02:35;;;;;;;8.90;3.15;;;;;;;12.08;100.00;163721.69;5048721;28;20041;-60
2022/11/09 08:05:00;;;;;;;7.07;3.40;;;;;;;12.16;100.00;163743.31;5050437;28;20383;-60
2022/11/09 08:07:26;;;;;;;8.85;3.80;;;;;;;12.21;100.00;163756.78;5048634;28;20060;-60
2022/11/09 08:09:51;;;;;;;11.23;4.05;;;;;;;12.24;100.00;163764.91;5049614;28;20021;-60
2022/11/09 08:12:16;;;;;;;12.60;3.47;;;;;;;12.24;100.00;163764.91;5048868;28;20048;-60
2022/11/09 08:14:42;;;;;;;10.60;4.13;;;;;;;12.31;100.00;163783.84;5062666;28;20035;-60
2022/11/09 08:17:07;;;;;;;8.88;3.28;;;;;;;12.37;100.00;163798.66;5067294;28;20037;-60
2022/11/09 08:19:33;;;;;;;14.60;4.78;;;;;;;12.46;100.00;163821.66;5070306;28;20751;-60
2022/11/09 08:21:58;;;;;;;45.00;4.05;;;;;;;12.54;100.00;163844.63;5068553;28;20510;-60
2022/11/09 08:24:24;;;;;;;12.68;4.43;;;;;;;12.61;100.00;163862.22;5069800;28;20379;-60
2022/11/09 08:26:49;;;;;;;12.15;3.22;;;;;;;12.60;100.00;163859.50;5068731;28;20032;-60
2022/11/09 08:29:14;;;;;;;11.10;3.30;;;;;;;12.89;100.00;163933.81;5069790;28;20037;-60
2022/11/09 08:31:40;;;;;;;4.43;3.35;;;;;;;13.07;100.00;163981.16;5068601;28;20495;-60
2022/11/09 08:34:10;;;;;;;11.98;3.65;;;;;;;13.26;100.00;164032.53;5070293;28;20368;-60
2022/11/09 08:36:35;;;;;;;6.20;2.88;;;;;;;13.43;100.00;164075.84;5068707;28;20066;-60
2022/11/09 08:39:00;;;;;;;11.38;3.65;;;;;;;13.61;100.00;164124.50;5069863;28;20017;-60
2022/11/09 08:41:27;;;;;;;10.30;4.32;;;;;;;13.56;100.00;164111.00;5068848;28;20039;-60
2022/11/09 08:43:53;;;;;;;9.20;4.15;;;;;;;13.56;100.00;164111.00;5070402;28;20029;-60
2022/11/09 08:46:18;;;;;;;13.68;4.40;;;;;;;13.54;100.00;164105.56;5072320;28;20027;-60
2022/11/09 08:48:43;;;;;;;7.05;3.08;;;;;;;13.73;100.00;164154.28;5073384;28;20533;-60
2022/11/09 08:51:09;;;;;;;8.77;3.13;;;;;;;13.68;100.00;164140.72;5072060;28;20031;-60
2022/11/09 08:53:34;;;;;;;7.10;3.58;;;;;;;13.67;100.00;164139.41;5073501;28;20027;-60
2022/11/09 08:55:59;;;;;;;7.95;3.53;;;;;;;13.70;100.00;164147.47;5073079;28;20032;-60
2022/11/09 08:58:25;;;;;;;8.38;3.10;;;;;;;13.62;100.00;164127.22;5071842;28;20090;-60
2022/11/09 09:00:50;;;;;;;8.88;2.92;;;;;;;13.59;100.00;164119.09;5073230;28;20070;-60
2022/11/09 09:03:16;;;;;;;15.85;4.40;;;;;;;13.48;100.00;164089.34;5071607;28;20044;-60
2022/11/09 09:05:41;;;;;;;10.15;3.35;;;;;;;13.29;100.00;164040.59;5073144;28;20521;-60
2022/11/09 09:08:07;;;;;;;10.30;5.63;;;;;;;13.30;100.00;164043.31;5071893;28;20518;-60
2022/11/09 09:10:34;;;;;;;2.88;2.20;;;;;;;13.16;100.00;164005.47;5072833;28;20387;-60
2022/11/09 09:13:00;;;;;;;7.70;4.15;;;;;;;13.08;100.00;163983.81;5070150;28;20036;-61
2022/11/09 09:15:25;;;;;;;8.98;4.85;;;;;;;13.02;100.00;163970.31;5073157;28;20078;-60
2022/11/09 09:17:50;;;;;;;13.48;4.82;;;;;;;12.99;100.00;163962.19;5070928;28;20067;-60
2022/11/09 09:20:19;;;;;;;13.00;5.55;;;;;;;13.09;100.00;163986.53;5073083;28;20016;-60
2022/11/09 09:22:44;;;;;;;9.25;2.67;;;;;;;13.33;100.00;164050.06;5071409;28;20048;-60
2022/11/09 09:25:10;;;;;;;8.95;3.63;;;;;;;13.41;100.00;164070.44;5072817;28;20553;-59
2022/11/09 09:27:35;;;;;;;16.90;4.22;;;;;;;13.38;100.00;164062.25;5071316;28;20457;-60
2022/11/09 09:30:00;;;;;;;6.03;3.40;;;;;;;13.22;100.00;164020.34;5072559;28;20040;-60
2022/11/09 09:32:26;;;;;;;11.38;3.80;;;;;;;13.18;100.00;164010.88;5069713;28;20041;-60
2022/11/09 09:34:51;;;;;;;14.77;4.18;;;;;;;13.22;100.00;164020.34;5065485;28;20016;-60
2022/11/09 09:37:17;;;;;;;18.88;5.30;;;;;;;13.11;100.00;163991.97;5063510;28;20051;-60
2022/11/09 09:39:42;;;;;;;7.95;2.55;;;;;;;13.27;100.00;164035.22;5064656;28;20042;-60
2022/11/09 09:42:16;;;;;;;8.05;3.30;;;;;;;13.30;100.00;164043.31;5057252;28;20079;-60
2022/11/09 09:45:02;;;;;;;25.60;4.78;;;;;;;13.24;100.00;164027.09;5052091;28;20078;-60
2022/11/09 09:47:43;;;;;;;12.50;4.95;;;;;;;13.27;100.00;164035.22;5050194;28;20403;-60
2022/11/09 09:50:36;;;;;;;12.25;4.40;;;;;;;13.43;100.00;164075.84;5053529;28;20038;-60
2022/11/09 09:53:26;;;;;;;5.13;2.58;;;;;;;13.46;100.00;164083.94;5050226;28;20076;-60
2022/11/09 09:56:08;;;;;;;11.63;4.18;;;;;;;13.77;100.00;164165.06;5058142;28;20056;-60
2022/11/09 09:58:40;;;;;;;15.57;3.22;;;;;;;13.89;100.00;164197.53;5068914;28;20036;-60
2022/11/09 10:01:14;;;;;;;6.65;3.78;;;;;;;13.76;100.00;164162.38;5070850;28;20032;-60
2022/11/09 10:03:39;;;;;;;9.27;2.85;;;;;;;13.78;100.00;164167.78;5070686;28;20048;-60
2022/11/09 10:06:33;;;;;;;7.57;3.28;;;;;;;13.53;100.00;164102.88;5072256;28;20048;-60
2022/11/09 10:09:11;;;;;;;9.20;3.63;;;;;;;13.38;100.00;164062.25;5069068;28;20053;-60
2022/11/09 10:12:18;;;;;;;13.40;5.13;;;;;;;13.41;100.00;164070.44;5070509;28;20112;-60
2022/11/09 10:15:04;;;;;;;9.30;2.45;;;;;;;13.33;100.00;164050.06;5071639;28;20152;-60
2022/11/09 10:18:01;;;;;;;8.10;3.35;;;;;;;13.26;100.00;164032.53;5070523;28;20040;-60
2022/11/09 10:20:59;;;;;;;11.57;4.35;;;;;;;13.31;100.00;164044.69;5071789;28;20050;-60
2022/11/09 10:23:39;;;;;;;17.50;3.60;;;;;;;13.40;100.00;164067.72;5069931;28;20119;-60
2022/11/09 10:26:21;;;;;;;13.68;3.17;;;;;;;13.32;100.00;164047.41;5071901;28;20029;-61
2022/11/09 10:28:53;;;;;;;9.32;4.20;;;;;;;13.22;100.00;164021.69;5070101;28;20313;-60
2022/11/09 10:31:21;;;;;;;7.00;2.72;;;;;;;13.28;100.00;164037.94;5069924;28;20032;-60
2022/11/09 10:33:53;;;;;;;7.45;3.38;;;;;;;13.52;100.00;164100.16;5071226;28;20025;-60
2022/11/09 10:36:41;;;;;;;11.77;4.15;;;;;;;13.51;100.00;164097.50;5070218;28;20479;-60
2022/11/09 10:39:12;;;;;;;10.15;2.80;;;;;;;13.43;100.00;164077.19;5070479;28;20062;-60
2022/11/09 10:41:40;;;;;;;10.40;4.68;;;;;;;13.49;100.00;164092.06;5066414;28;20098;-60
2022/11/09 10:44:13;;;;;;;9.43;4.75;;;;;;;13.61;100.00;164124.50;5066588;28;20043;-59
2022/11/09 10:47:03;;;;;;;6.35;3.40;;;;;;;13.72;100.00;164151.56;5067802;28;20038;-60
2022/11/09 10:49:28;;;;;;;13.07;5.63;;;;;;;14.02;100.00;164230.03;5068744;28;20178;-60
2022/11/09 10:51:53;;;;;;;6.22;4.20;;;;;;;14.23;100.00;164285.44;5068288;28;20187;-60
2022/11/09 10:54:25;;;;;;;10.80;5.20;;;;;;;14.01;100.00;164227.31;5069741;28;20039;-60
2022/11/09 10:57:00;;;;;;;14.02;2.97;;;;;;;13.87;100.00;164192.16;5069394;28;20036;-60
2022/11/09 10:59:48;;;;;;;8.48;4.72;;;;;;;13.86;100.00;164188.06;5070843;28;20025;-60
2022/11/09 11:02:23;;;;;;;;;;;;;;;13.81;100.00;164175.94;5066299;28;20574;-60
2022/11/09 11:04:48;;;;;;;8.48;2.45;;;;;;;13.74;100.00;164158.31;5070929;28;19908;-60
2022/11/09 11:07:18;;;;;;;15.05;4.88;;;;;;;13.76;100.00;164162.38;5068408;28;20529;-60
2022/11/09 11:09:43;;;;;;;10.55;4.25;;;;;;;13.79;100.00;164170.50;5070554;28;20032;-61
2022/11/09 11:12:19;;;;;;;6.97;3.42;;;;;;;14.09;100.00;164250.28;5069534;28;20047;-60
2022/11/09 11:14:45;;;;;;;9.10;2.47;;;;;;;14.35;100.00;164316.56;5068543;28;20024;-60
2022/11/09 11:17:41;;;;;;;12.45;2.63;;;;;;;14.39;100.00;164328.75;5069065;28;20037;-60